Winning Drive — WDG4948 — position and weather

sailwx.info

Track history (hours):
 
Tides and Currents Weather Stations Pressure Air Temp Water Temp Dewpoint Dewpoint Depression Visibility Wind Speed Wind Dir Waves Ship Positions

Winning Drive

Owner: Winning Way LLC, Fort Lauderdale, FL. More information available from US FCC via Universal Licensing System and Coast Guard Vessel Documentation Center.

Last reported at 2018-Jun-18 11:22 UTC. Time now 2018-Jun-19 04:09 UTC.
Position N 38°58' W 076°29'.

Length 40 m; draft 2.7 m.

Type: Pleasure craft. MMSI: 367541760.

Date/timePositionNaut miles runAvg speedWind from/ knotsBaromVisibWave heightAir tempDewpointWater temp
2018-Jun-18 11:22N 38°58' W 076°29'0 0.0
2018-Jun-18 10:58N 38°58' W 076°29'0 0.0
2018-Jun-18 10:22N 38°58' W 076°29'0 0.0
2018-Jun-18 02:40N 38°58' W 076°29'0 0.0
2018-Jun-18 02:16N 38°58' W 076°29'0 0.0
2018-Jun-18 01:58N 38°58' W 076°29'0 0.0
2018-Jun-18 01:30N 38°58' W 076°29'0 0.0
2018-Jun-18 01:00N 38°58' W 076°29'3 6.9
2018-Jun-18 00:31N 39°01' W 076°31'4 9.0
2018-Jun-18 00:00N 39°05' W 076°36'0 0.1
2018-Jun-17 23:29N 39°05' W 076°36'0 0.0
2018-Jun-17 23:00N 39°05' W 076°36'0 0.0
2018-Jun-17 22:30N 39°05' W 076°36'0 0.3
2018-Jun-17 21:59N 39°04' W 076°35'2 4.5
2018-Jun-17 21:27N 39°02' W 076°34'510.9
2018-Jun-17 21:00N 38°59' W 076°29'2 4.4
2018-Jun-17 20:30N 38°58' W 076°27'3 6.4
2018-Jun-17 19:59N 39°00' W 076°30'4 8.8
2018-Jun-17 19:31N 39°04' W 076°33'2 3.9
2018-Jun-17 19:00N 39°05' W 076°36'0 0.0
2018-Jun-17 18:28N 39°05' W 076°36'0 0.0
2018-Jun-17 18:00N 39°05' W 076°36'0 0.0
2018-Jun-17 17:26N 39°05' W 076°36'1 3.2
2018-Jun-17 17:00N 39°04' W 076°34'510.9
2018-Jun-17 16:30N 38°60' W 076°29'1 2.5
2018-Jun-17 15:58N 38°58' W 076°29'0 0.0
2018-Jun-17 14:10N 38°58' W 076°29'0 0.0
2018-Jun-17 13:52N 38°58' W 076°29'0 0.0
2018-Jun-17 12:43N 38°58' W 076°29'0 0.0
2018-Jun-17 09:52N 38°58' W 076°29'0 0.0
2018-Jun-17 09:07N 38°58' W 076°29'0 0.0
2018-Jun-17 08:40N 38°58' W 076°29'0 0.0
2018-Jun-17 07:16N 38°58' W 076°29'0 0.0
2018-Jun-17 06:58N 38°58' W 076°29'0 0.0
2018-Jun-17 06:28N 38°58' W 076°29'0 0.0
2018-Jun-17 05:55N 38°58' W 076°29'0 0.0
2018-Jun-17 05:28N 38°58' W 076°29'0 0.0
2018-Jun-17 04:52N 38°58' W 076°29'0 0.0
2018-Jun-17 04:16N 38°58' W 076°29'0 0.0
2018-Jun-17 03:58N 38°58' W 076°29'0 0.0
2018-Jun-17 03:28N 38°58' W 076°29'0 0.0
2018-Jun-17 01:46N 38°58' W 076°29'0 0.0
2018-Jun-17 01:28N 38°58' W 076°29'0 0.0
2018-Jun-17 00:58N 38°58' W 076°29'0 0.0
2018-Jun-17 00:10N 38°58' W 076°29'0 0.0
2018-Jun-16 23:58N 38°58' W 076°29'0 0.0
2018-Jun-16 23:04N 38°58' W 076°29'0 0.1
2018-Jun-16 22:58N 38°58' W 076°29'0 0.0
2018-Jun-16 22:22N 38°58' W 076°29'0 0.0
2018-Jun-16 21:58N 38°58' W 076°29'0 0.0
2018-Jun-16 21:28N 38°58' W 076°29'0 0.0
2018-Jun-16 20:58N 38°58' W 076°29'0 0.0
2018-Jun-16 20:22N 38°58' W 076°29'0 0.0
2018-Jun-16 19:58N 38°58' W 076°29'0 0.0
2018-Jun-16 19:28N 38°58' W 076°29'0 0.0
2018-Jun-16 13:34N 38°58' W 076°29'0 0.0
2018-Jun-16 13:22N 38°58' W 076°29'0 0.0
2018-Jun-16 12:40N 38°58' W 076°29'0 0.0
2018-Jun-16 12:22N 38°58' W 076°29'0 0.0
2018-Jun-16 10:46N 38°58' W 076°29'0 0.0
2018-Jun-16 10:22N 38°58' W 076°29'0 0.0
2018-Jun-16 09:04N 38°58' W 076°29'0 0.0
2018-Jun-16 08:58N 38°58' W 076°29'0 0.0
2018-Jun-16 08:16N 38°58' W 076°29'0 0.0
2018-Jun-16 07:58N 38°58' W 076°29'0 0.0
2018-Jun-16 07:28N 38°58' W 076°29'0 0.0
2018-Jun-16 06:58N 38°58' W 076°29'0 0.0
2018-Jun-16 06:22N 38°58' W 076°29'0 0.0
2018-Jun-16 05:52N 38°58' W 076°29'0 0.0
2018-Jun-16 04:37N 38°58' W 076°29'0 0.0
2018-Jun-16 04:25N 38°58' W 076°29'0 0.0
2018-Jun-16 03:58N 38°58' W 076°29'0 0.0
2018-Jun-16 03:28N 38°58' W 076°29'0 0.0
2018-Jun-16 02:58N 38°58' W 076°29'0 0.0
2018-Jun-16 02:28N 38°58' W 076°29'0 0.0
2018-Jun-16 00:46N 38°58' W 076°29'0 0.0
2018-Jun-16 00:22N 38°58' W 076°29'0 0.0
2018-Jun-15 23:58N 38°58' W 076°29'0 0.0
2018-Jun-15 23:28N 38°58' W 076°29'0 0.0
2018-Jun-15 22:58N 38°58' W 076°29'0 0.0
2018-Jun-15 15:58N 38°58' W 076°29'0 0.0
2018-Jun-15 15:28N 38°58' W 076°29'0 0.0
2018-Jun-15 14:58N 38°58' W 076°29'0 0.0
2018-Jun-15 14:25N 38°58' W 076°29'0 0.0
2018-Jun-15 13:58N 38°58' W 076°29'0 0.0
2018-Jun-15 13:28N 38°58' W 076°29'0 0.0
2018-Jun-15 12:58N 38°58' W 076°29'0 0.0
2018-Jun-15 12:16N 38°58' W 076°29'0 0.0
2018-Jun-15 11:52N 38°58' W 076°29'0 0.0
2018-Jun-15 11:28N 38°58' W 076°29'0 0.0
2018-Jun-15 10:58N 38°58' W 076°29'0 0.0
2018-Jun-15 10:25N 38°58' W 076°29'0 0.0
2018-Jun-15 09:58N 38°58' W 076°29'0 0.0
2018-Jun-15 09:28N 38°58' W 076°29'0 0.0
2018-Jun-15 08:55N 38°58' W 076°29'0 0.0
2018-Jun-15 08:28N 38°58' W 076°29'0 0.0
2018-Jun-15 07:58N 38°58' W 076°29'0 0.0
2018-Jun-15 06:46N 38°58' W 076°29'0 0.0
2018-Jun-15 06:16N 38°58' W 076°29'0 0.0
2018-Jun-15 05:58N 38°58' W 076°29'0 0.0
2018-Jun-15 05:22N 38°58' W 076°29'0 0.0
2018-Jun-15 04:55N 38°58' W 076°29'0 0.0
2018-Jun-15 04:28N 38°58' W 076°29'0 0.0
2018-Jun-15 03:04N 38°58' W 076°29'0 0.0
2018-Jun-15 02:58N 38°58' W 076°29'0 0.0
2018-Jun-15 02:28N 38°58' W 076°29'0 0.0
2018-Jun-15 01:46N 38°58' W 076°29'0 0.0
2018-Jun-15 00:34N 38°58' W 076°29'0 0.0
2018-Jun-14 23:34N 38°58' W 076°29'0 0.0
2018-Jun-14 23:28N 38°58' W 076°29'0 0.0
2018-Jun-14 22:58N 38°58' W 076°29'0 0.0
2018-Jun-14 22:28N 38°58' W 076°29'0 0.0
2018-Jun-14 21:58N 38°58' W 076°29'0 0.0
2018-Jun-14 21:28N 38°58' W 076°29'0 0.0
2018-Jun-14 20:55N 38°58' W 076°29'0 0.0
2018-Jun-14 20:25N 38°58' W 076°29'0 0.0
2018-Jun-14 19:40N 38°58' W 076°29'0 0.0
2018-Jun-14 19:25N 38°58' W 076°29'0 0.0
2018-Jun-14 18:58N 38°58' W 076°29'0 0.0
2018-Jun-14 17:40N 38°58' W 076°29'0 0.0
2018-Jun-14 17:04N 38°58' W 076°29'0 0.0
2018-Jun-14 16:52N 38°58' W 076°29'0 0.0
2018-Jun-14 16:10N 38°58' W 076°29'0 0.0
2018-Jun-14 15:34N 38°58' W 076°29'0 0.0
2018-Jun-14 15:28N 38°58' W 076°29'0 0.0
2018-Jun-14 14:01N 38°58' W 076°29'0 0.1
2018-Jun-14 13:55N 38°58' W 076°29'0 0.0
2018-Jun-14 13:28N 38°58' W 076°29'0 0.0
2018-Jun-14 10:58N 38°58' W 076°29'0 0.0
2018-Jun-14 10:22N 38°58' W 076°29'0 0.0
2018-Jun-14 09:58N 38°58' W 076°29'0 0.0
2018-Jun-14 09:28N 38°58' W 076°29'0 0.0
2018-Jun-14 03:10N 38°58' W 076°29'0 0.0
2018-Jun-14 02:40N 38°58' W 076°29'0 0.0
2018-Jun-14 02:04N 38°58' W 076°29'0 0.0
2018-Jun-13 23:49N 38°58' W 076°29'0 0.0
2018-Jun-13 23:14N 38°58' W 076°29'0 0.0
2018-Jun-13 22:54N 38°58' W 076°29'0 0.0
2018-Jun-13 22:21N 38°58' W 076°29'0 0.0
2018-Jun-13 21:57N 38°58' W 076°29'0 0.1
2018-Jun-13 21:30N 38°58' W 076°29'0 0.0
2018-Jun-13 21:00N 38°58' W 076°29'0 0.0
2018-Jun-13 20:29N 38°58' W 076°29'1 2.6
2018-Jun-13 20:01N 38°58' W 076°28'4 7.9
2018-Jun-13 19:30N 38°55' W 076°25'713.2
2018-Jun-13 19:00N 38°48' W 076°26'  
2018-Jun-11 13:15N 27°05' W 079°54'416.4
2018-Jun-11 12:59N 27°01' W 079°55'816.2
2018-Jun-11 12:30N 26°53' W 079°57'  
Track history (hours):
 
Tides and Currents Weather Stations Pressure Air Temp Water Temp Dewpoint Dewpoint Depression Visibility Wind Speed Wind Dir Waves Ship Positions

Winning Drive

Owner: Winning Way LLC, Fort Lauderdale, FL. More information available from US FCC via Universal Licensing System and Coast Guard Vessel Documentation Center.

Last reported at 2018-Jun-18 11:22 UTC. Time now 2018-Jun-19 04:09 UTC.
Position N 38°58' W 076°29'.

Length 40 m; draft 2.7 m.

Type: Pleasure craft. MMSI: 367541760.

Date/timePositionNaut miles runAvg speedWind from/ knotsBaromVisibWave heightAir tempDewpointWater temp
2018-Jun-18 11:22N 38°58' W 076°29'0 0.0
2018-Jun-18 10:58N 38°58' W 076°29'0 0.0
2018-Jun-18 10:22N 38°58' W 076°29'0 0.0
2018-Jun-18 02:40N 38°58' W 076°29'0 0.0
2018-Jun-18 02:16N 38°58' W 076°29'0 0.0
2018-Jun-18 01:58N 38°58' W 076°29'0 0.0
2018-Jun-18 01:30N 38°58' W 076°29'0 0.0
2018-Jun-18 01:00N 38°58' W 076°29'3 6.9
2018-Jun-18 00:31N 39°01' W 076°31'4 9.0
2018-Jun-18 00:00N 39°05' W 076°36'0 0.1
2018-Jun-17 23:29N 39°05' W 076°36'0 0.0
2018-Jun-17 23:00N 39°05' W 076°36'0 0.0
2018-Jun-17 22:30N 39°05' W 076°36'0 0.3
2018-Jun-17 21:59N 39°04' W 076°35'2 4.5
2018-Jun-17 21:27N 39°02' W 076°34'510.9
2018-Jun-17 21:00N 38°59' W 076°29'2 4.4
2018-Jun-17 20:30N 38°58' W 076°27'3 6.4
2018-Jun-17 19:59N 39°00' W 076°30'4 8.8
2018-Jun-17 19:31N 39°04' W 076°33'2 3.9
2018-Jun-17 19:00N 39°05' W 076°36'0 0.0
2018-Jun-17 18:28N 39°05' W 076°36'0 0.0
2018-Jun-17 18:00N 39°05' W 076°36'0 0.0
2018-Jun-17 17:26N 39°05' W 076°36'1 3.2
2018-Jun-17 17:00N 39°04' W 076°34'510.9
2018-Jun-17 16:30N 38°60' W 076°29'1 2.5
2018-Jun-17 15:58N 38°58' W 076°29'0 0.0
2018-Jun-17 14:10N 38°58' W 076°29'0 0.0
2018-Jun-17 13:52N 38°58' W 076°29'0 0.0
2018-Jun-17 12:43N 38°58' W 076°29'0 0.0
2018-Jun-17 09:52N 38°58' W 076°29'0 0.0
2018-Jun-17 09:07N 38°58' W 076°29'0 0.0
2018-Jun-17 08:40N 38°58' W 076°29'0 0.0
2018-Jun-17 07:16N 38°58' W 076°29'0 0.0
2018-Jun-17 06:58N 38°58' W 076°29'0 0.0
2018-Jun-17 06:28N 38°58' W 076°29'0 0.0
2018-Jun-17 05:55N 38°58' W 076°29'0 0.0
2018-Jun-17 05:28N 38°58' W 076°29'0 0.0
2018-Jun-17 04:52N 38°58' W 076°29'0 0.0
2018-Jun-17 04:16N 38°58' W 076°29'0 0.0
2018-Jun-17 03:58N 38°58' W 076°29'0 0.0
2018-Jun-17 03:28N 38°58' W 076°29'0 0.0
2018-Jun-17 01:46N 38°58' W 076°29'0 0.0
2018-Jun-17 01:28N 38°58' W 076°29'0 0.0
2018-Jun-17 00:58N 38°58' W 076°29'0 0.0
2018-Jun-17 00:10N 38°58' W 076°29'0 0.0
2018-Jun-16 23:58N 38°58' W 076°29'0 0.0
2018-Jun-16 23:04N 38°58' W 076°29'0 0.1
2018-Jun-16 22:58N 38°58' W 076°29'0 0.0
2018-Jun-16 22:22N 38°58' W 076°29'0 0.0
2018-Jun-16 21:58N 38°58' W 076°29'0 0.0
2018-Jun-16 21:28N 38°58' W 076°29'0 0.0
2018-Jun-16 20:58N 38°58' W 076°29'0 0.0
2018-Jun-16 20:22N 38°58' W 076°29'0 0.0
2018-Jun-16 19:58N 38°58' W 076°29'0 0.0
2018-Jun-16 19:28N 38°58' W 076°29'0 0.0
2018-Jun-16 13:34N 38°58' W 076°29'0 0.0
2018-Jun-16 13:22N 38°58' W 076°29'0 0.0
2018-Jun-16 12:40N 38°58' W 076°29'0 0.0
2018-Jun-16 12:22N 38°58' W 076°29'0 0.0
2018-Jun-16 10:46N 38°58' W 076°29'0 0.0
2018-Jun-16 10:22N 38°58' W 076°29'0 0.0
2018-Jun-16 09:04N 38°58' W 076°29'0 0.0
2018-Jun-16 08:58N 38°58' W 076°29'0 0.0
2018-Jun-16 08:16N 38°58' W 076°29'0 0.0
2018-Jun-16 07:58N 38°58' W 076°29'0 0.0
2018-Jun-16 07:28N 38°58' W 076°29'0 0.0
2018-Jun-16 06:58N 38°58' W 076°29'0 0.0
2018-Jun-16 06:22N 38°58' W 076°29'0 0.0
2018-Jun-16 05:52N 38°58' W 076°29'0 0.0
2018-Jun-16 04:37N 38°58' W 076°29'0 0.0
2018-Jun-16 04:25N 38°58' W 076°29'0 0.0
2018-Jun-16 03:58N 38°58' W 076°29'0 0.0
2018-Jun-16 03:28N 38°58' W 076°29'0 0.0
2018-Jun-16 02:58N 38°58' W 076°29'0 0.0
2018-Jun-16 02:28N 38°58' W 076°29'0 0.0
2018-Jun-16 00:46N 38°58' W 076°29'0 0.0
2018-Jun-16 00:22N 38°58' W 076°29'0 0.0
2018-Jun-15 23:58N 38°58' W 076°29'0 0.0
2018-Jun-15 23:28N 38°58' W 076°29'0 0.0
2018-Jun-15 22:58N 38°58' W 076°29'0 0.0
2018-Jun-15 15:58N 38°58' W 076°29'0 0.0
2018-Jun-15 15:28N 38°58' W 076°29'0 0.0
2018-Jun-15 14:58N 38°58' W 076°29'0 0.0
2018-Jun-15 14:25N 38°58' W 076°29'0 0.0
2018-Jun-15 13:58N 38°58' W 076°29'0 0.0
2018-Jun-15 13:28N 38°58' W 076°29'0 0.0
2018-Jun-15 12:58N 38°58' W 076°29'0 0.0
2018-Jun-15 12:16N 38°58' W 076°29'0 0.0
2018-Jun-15 11:52N 38°58' W 076°29'0 0.0
2018-Jun-15 11:28N 38°58' W 076°29'0 0.0
2018-Jun-15 10:58N 38°58' W 076°29'0 0.0
2018-Jun-15 10:25N 38°58' W 076°29'0 0.0
2018-Jun-15 09:58N 38°58' W 076°29'0 0.0
2018-Jun-15 09:28N 38°58' W 076°29'0 0.0
2018-Jun-15 08:55N 38°58' W 076°29'0 0.0
2018-Jun-15 08:28N 38°58' W 076°29'0 0.0
2018-Jun-15 07:58N 38°58' W 076°29'0 0.0
2018-Jun-15 06:46N 38°58' W 076°29'0 0.0
2018-Jun-15 06:16N 38°58' W 076°29'0 0.0
2018-Jun-15 05:58N 38°58' W 076°29'0 0.0
2018-Jun-15 05:22N 38°58' W 076°29'0 0.0
2018-Jun-15 04:55N 38°58' W 076°29'0 0.0
2018-Jun-15 04:28N 38°58' W 076°29'0 0.0
2018-Jun-15 03:04N 38°58' W 076°29'0 0.0
2018-Jun-15 02:58N 38°58' W 076°29'0 0.0
2018-Jun-15 02:28N 38°58' W 076°29'0 0.0
2018-Jun-15 01:46N 38°58' W 076°29'0 0.0
2018-Jun-15 00:34N 38°58' W 076°29'0 0.0
2018-Jun-14 23:34N 38°58' W 076°29'0 0.0
2018-Jun-14 23:28N 38°58' W 076°29'0 0.0
2018-Jun-14 22:58N 38°58' W 076°29'0 0.0
2018-Jun-14 22:28N 38°58' W 076°29'0 0.0
2018-Jun-14 21:58N 38°58' W 076°29'0 0.0
2018-Jun-14 21:28N 38°58' W 076°29'0 0.0
2018-Jun-14 20:55N 38°58' W 076°29'0 0.0
2018-Jun-14 20:25N 38°58' W 076°29'0 0.0
2018-Jun-14 19:40N 38°58' W 076°29'0 0.0
2018-Jun-14 19:25N 38°58' W 076°29'0 0.0
2018-Jun-14 18:58N 38°58' W 076°29'0 0.0
2018-Jun-14 17:40N 38°58' W 076°29'0 0.0
2018-Jun-14 17:04N 38°58' W 076°29'0 0.0
2018-Jun-14 16:52N 38°58' W 076°29'0 0.0
2018-Jun-14 16:10N 38°58' W 076°29'0 0.0
2018-Jun-14 15:34N 38°58' W 076°29'0 0.0
2018-Jun-14 15:28N 38°58' W 076°29'0 0.0
2018-Jun-14 14:01N 38°58' W 076°29'0 0.1
2018-Jun-14 13:55N 38°58' W 076°29'0 0.0
2018-Jun-14 13:28N 38°58' W 076°29'0 0.0
2018-Jun-14 10:58N 38°58' W 076°29'0 0.0
2018-Jun-14 10:22N 38°58' W 076°29'0 0.0
2018-Jun-14 09:58N 38°58' W 076°29'0 0.0
2018-Jun-14 09:28N 38°58' W 076°29'0 0.0
2018-Jun-14 03:10N 38°58' W 076°29'0 0.0
2018-Jun-14 02:40N 38°58' W 076°29'0 0.0
2018-Jun-14 02:04N 38°58' W 076°29'0 0.0
2018-Jun-13 23:49N 38°58' W 076°29'0 0.0
2018-Jun-13 23:14N 38°58' W 076°29'0 0.0
2018-Jun-13 22:54N 38°58' W 076°29'0 0.0
2018-Jun-13 22:21N 38°58' W 076°29'0 0.0
2018-Jun-13 21:57N 38°58' W 076°29'0 0.1
2018-Jun-13 21:30N 38°58' W 076°29'0 0.0
2018-Jun-13 21:00N 38°58' W 076°29'0 0.0
2018-Jun-13 20:29N 38°58' W 076°29'1 2.6
2018-Jun-13 20:01N 38°58' W 076°28'4 7.9
2018-Jun-13 19:30N 38°55' W 076°25'713.2
2018-Jun-13 19:00N 38°48' W 076°26'  
2018-Jun-11 13:15N 27°05' W 079°54'416.4
2018-Jun-11 12:59N 27°01' W 079°55'816.2
2018-Jun-11 12:30N 26°53' W 079°57'  

Dump ship's entire track history